createdAt,value
2018-07-27T00:00:17.853Z,23.29
2018-07-27T00:01:17.844Z,23.22
2018-07-27T00:02:17.844Z,23.23
2018-07-27T00:03:17.843Z,23.25
2018-07-27T00:04:17.845Z,23.15
2018-07-27T00:05:17.839Z,23.16
2018-07-27T00:06:17.839Z,23.14
2018-07-27T00:07:17.839Z,23.07
2018-07-27T00:08:17.838Z,23.12
2018-07-27T00:09:17.836Z,22.96
2018-07-27T00:10:17.838Z,22.94
2018-07-27T00:11:17.837Z,22.96
2018-07-27T00:12:17.837Z,22.99
2018-07-27T00:13:17.837Z,22.96
2018-07-27T00:14:17.835Z,22.97
2018-07-27T00:15:17.839Z,22.89
2018-07-27T00:16:17.836Z,22.78
2018-07-27T00:17:17.834Z,22.88
2018-07-27T00:18:17.833Z,22.84
2018-07-27T00:19:17.841Z,22.85
2018-07-27T00:20:17.832Z,22.88
2018-07-27T00:21:17.831Z,22.78
2018-07-27T00:22:17.831Z,22.74
2018-07-27T00:23:17.838Z,22.74
2018-07-27T00:24:17.829Z,22.79
2018-07-27T00:25:17.827Z,22.72
2018-07-27T00:26:17.831Z,22.84
2018-07-27T00:27:17.827Z,22.93
2018-07-27T00:28:17.827Z,22.91
2018-07-27T00:29:17.831Z,22.84
2018-07-27T00:30:17.826Z,22.82
2018-07-27T00:31:17.826Z,22.74
2018-07-27T00:32:17.828Z,22.69
2018-07-27T00:33:17.828Z,22.66
2018-07-27T00:34:17.821Z,22.69
2018-07-27T00:35:17.822Z,22.66
2018-07-27T00:36:17.826Z,22.63
2018-07-27T00:37:17.823Z,22.54
2018-07-27T00:38:17.820Z,22.52
2018-07-27T00:39:17.820Z,22.57
2018-07-27T00:40:17.817Z,22.46
2018-07-27T00:41:17.817Z,22.48
2018-07-27T00:42:17.818Z,22.48
2018-07-27T00:43:17.816Z,22.48
2018-07-27T00:44:17.820Z,22.46
2018-07-27T00:45:17.824Z,22.48
2018-07-27T00:46:17.813Z,22.54
2018-07-27T00:47:17.814Z,22.51
2018-07-27T00:48:17.810Z,22.46
2018-07-27T00:49:17.813Z,22.39
2018-07-27T00:50:17.814Z,22.39
2018-07-27T00:51:17.815Z,22.46
2018-07-27T00:52:17.816Z,22.41
2018-07-27T00:53:17.806Z,22.42
2018-07-27T00:54:17.806Z,22.38
2018-07-27T00:55:17.805Z,22.31
2018-07-27T00:56:17.806Z,22.30
2018-07-27T00:57:17.803Z,22.38
2018-07-27T00:58:17.809Z,22.36
2018-07-27T00:59:17.802Z,22.33
2018-07-27T01:00:17.798Z,22.39
2018-07-27T01:01:17.805Z,22.36
2018-07-27T01:02:17.802Z,22.48
2018-07-27T01:03:17.798Z,22.27
2018-07-27T01:04:17.797Z,22.21
2018-07-27T01:05:17.801Z,22.24
2018-07-27T01:06:17.794Z,22.23
2018-07-27T01:07:17.797Z,22.17
2018-07-27T01:08:17.796Z,22.21
2018-07-27T01:09:17.794Z,22.14
2018-07-27T01:10:17.792Z,22.15
2018-07-27T01:11:17.789Z,22.14
2018-07-27T01:12:17.786Z,22.06
2018-07-27T01:13:17.788Z,22.12
2018-07-27T01:14:17.791Z,22.06
2018-07-27T01:15:17.786Z,22.04
2018-07-27T01:16:17.784Z,22.05
2018-07-27T01:17:17.783Z,22.02
2018-07-27T01:18:17.782Z,22.08
2018-07-27T01:19:17.783Z,22.05
2018-07-27T01:20:17.784Z,22.02
2018-07-27T01:21:17.784Z,22.01
2018-07-27T01:22:17.780Z,21.93
2018-07-27T01:23:17.781Z,22.05
2018-07-27T01:24:17.774Z,21.86
2018-07-27T01:25:17.776Z,21.99
2018-07-27T01:26:17.772Z,21.98
2018-07-27T01:27:17.776Z,21.89
2018-07-27T01:28:17.774Z,21.89
2018-07-27T01:29:17.769Z,21.96
2018-07-27T01:30:17.773Z,21.96
2018-07-27T01:31:17.774Z,22.02
2018-07-27T01:32:17.766Z,21.98
2018-07-27T01:33:17.765Z,21.89
2018-07-27T01:34:17.773Z,22.02
2018-07-27T01:35:17.766Z,22.01
2018-07-27T01:36:17.768Z,21.89
2018-07-27T01:37:17.764Z,22.06
2018-07-27T01:38:17.759Z,21.89
2018-07-27T01:39:17.760Z,21.89
2018-07-27T01:40:17.766Z,22.01
2018-07-27T01:41:17.754Z,21.99
2018-07-27T01:42:17.756Z,21.89
2018-07-27T01:43:17.757Z,21.99
2018-07-27T01:44:17.757Z,22.04
2018-07-27T01:45:17.756Z,21.93
2018-07-27T01:46:17.752Z,22.06
2018-07-27T01:47:17.749Z,21.98
2018-07-27T01:48:17.744Z,22.05
2018-07-27T01:49:17.749Z,21.99
2018-07-27T01:50:17.745Z,21.96
2018-07-27T01:51:17.741Z,21.96
2018-07-27T01:52:17.747Z,21.93
2018-07-27T01:53:17.738Z,21.83
2018-07-27T01:54:17.741Z,21.79
2018-07-27T01:55:17.742Z,21.75
2018-07-27T01:56:17.736Z,21.70
2018-07-27T01:57:17.733Z,21.59
2018-07-27T01:58:17.732Z,21.58
2018-07-27T01:59:17.729Z,21.56
2018-07-27T02:00:17.729Z,21.52
2018-07-27T02:01:17.726Z,21.63
2018-07-27T02:02:17.728Z,21.56
2018-07-27T02:03:17.722Z,21.58
2018-07-27T02:04:17.726Z,21.56
2018-07-27T02:05:17.720Z,21.55
2018-07-27T02:06:17.717Z,21.51
2018-07-27T02:07:17.716Z,21.48
2018-07-27T02:08:17.716Z,21.51
2018-07-27T02:09:17.714Z,21.52
2018-07-27T02:10:17.712Z,21.55
2018-07-27T02:11:17.709Z,21.52
2018-07-27T02:12:17.708Z,21.55
2018-07-27T02:13:17.709Z,21.45
2018-07-27T02:14:17.707Z,21.64
2018-07-27T02:15:17.705Z,21.61
2018-07-27T02:16:17.706Z,21.58
2018-07-27T02:17:17.703Z,21.55
2018-07-27T02:18:17.698Z,21.49
2018-07-27T02:19:17.698Z,21.55
2018-07-27T02:20:17.694Z,21.48
2018-07-27T02:21:17.698Z,21.51
2018-07-27T02:22:17.698Z,21.45
2018-07-27T02:23:17.696Z,21.48
2018-07-27T02:24:17.691Z,21.38
2018-07-27T02:25:17.688Z,21.45
2018-07-27T02:26:17.689Z,21.33
2018-07-27T02:27:17.691Z,21.45
2018-07-27T02:28:17.680Z,21.38
2018-07-27T02:29:17.683Z,21.40
2018-07-27T02:30:17.686Z,21.46
2018-07-27T02:31:17.678Z,21.34
2018-07-27T02:32:17.675Z,21.45
2018-07-27T02:33:17.676Z,21.43
2018-07-27T02:34:17.673Z,21.38
2018-07-27T02:35:17.671Z,21.37
2018-07-27T02:36:17.676Z,21.37
2018-07-27T02:37:17.667Z,21.31
2018-07-27T02:38:17.669Z,21.33
2018-07-27T02:39:17.665Z,21.36
2018-07-27T02:40:17.668Z,21.24
2018-07-27T02:41:17.666Z,21.31
2018-07-27T02:42:17.659Z,21.26
2018-07-27T02:43:17.659Z,21.12
2018-07-27T02:44:17.661Z,21.24
2018-07-27T02:45:17.668Z,21.19
2018-07-27T02:46:17.653Z,21.19
2018-07-27T02:47:17.652Z,21.27
2018-07-27T02:48:17.652Z,21.13
2018-07-27T02:49:17.654Z,21.13
2018-07-27T02:50:17.647Z,21.16
2018-07-27T02:51:17.716Z,21.11
2018-07-27T02:52:17.645Z,21.12
2018-07-27T02:53:17.641Z,21.08
2018-07-27T02:54:17.647Z,21.06
2018-07-27T02:55:17.643Z,21.24
2018-07-27T02:56:17.635Z,21.27
2018-07-27T02:57:17.633Z,21.30
2018-07-27T02:58:17.636Z,21.28
2018-07-27T02:59:17.637Z,21.22
2018-07-27T03:00:17.629Z,21.22
2018-07-27T03:01:17.626Z,21.26
2018-07-27T03:02:17.623Z,21.03
2018-07-27T03:03:17.627Z,21.11
2018-07-27T03:04:17.621Z,21.05
2018-07-27T03:05:17.627Z,20.98
2018-07-27T03:06:17.620Z,21.00
2018-07-27T03:07:17.615Z,21.03
2018-07-27T03:08:17.619Z,20.93
2018-07-27T03:09:17.615Z,20.93
2018-07-27T03:10:17.614Z,20.96
2018-07-27T03:11:17.608Z,20.98
2018-07-27T03:12:17.604Z,21.01
2018-07-27T03:13:17.604Z,21.00
2018-07-27T03:14:17.604Z,20.96
2018-07-27T03:15:17.601Z,21.00
2018-07-27T03:16:17.599Z,21.05
2018-07-27T03:17:17.597Z,21.06
2018-07-27T03:18:17.600Z,21.00
2018-07-27T03:19:17.600Z,20.98
2018-07-27T03:20:17.593Z,20.96
2018-07-27T03:21:17.595Z,21.00
2018-07-27T03:22:17.589Z,20.96
2018-07-27T03:23:17.593Z,21.00
2018-07-27T03:24:17.582Z,21.01
2018-07-27T03:25:17.583Z,21.00
2018-07-27T03:26:17.580Z,20.94
2018-07-27T03:27:17.580Z,20.94
2018-07-27T03:28:17.574Z,20.87
2018-07-27T03:29:17.580Z,20.94
2018-07-27T03:30:17.573Z,20.97
2018-07-27T03:31:17.573Z,20.83
2018-07-27T03:32:17.575Z,20.83
2018-07-27T03:33:17.571Z,20.75
2018-07-27T03:34:17.568Z,20.76
2018-07-27T03:35:17.565Z,20.76
2018-07-27T03:36:17.564Z,20.72
2018-07-27T03:37:17.565Z,20.79
2018-07-27T03:38:17.617Z,20.75
2018-07-27T03:39:17.557Z,20.75
2018-07-27T03:40:17.554Z,20.88
2018-07-27T03:41:17.560Z,20.91
2018-07-27T03:42:17.551Z,20.94
2018-07-27T03:43:17.550Z,20.87
2018-07-27T03:44:17.546Z,20.82
2018-07-27T03:45:17.549Z,20.76
2018-07-27T03:46:17.544Z,20.72
2018-07-27T03:47:17.542Z,20.76
2018-07-27T03:48:17.539Z,20.66
2018-07-27T03:49:17.543Z,20.57
2018-07-27T03:50:17.535Z,20.58
2018-07-27T03:51:17.534Z,20.56
2018-07-27T03:52:17.536Z,20.63
2018-07-27T03:53:17.536Z,20.63
2018-07-27T03:54:17.530Z,20.64
2018-07-27T03:55:17.527Z,20.75
2018-07-27T03:56:17.527Z,20.78
2018-07-27T03:57:17.521Z,20.76
2018-07-27T03:58:17.519Z,20.69
2018-07-27T03:59:17.521Z,20.66
2018-07-27T04:00:17.517Z,20.68
2018-07-27T04:01:17.511Z,20.50
2018-07-27T04:02:17.574Z,20.58
2018-07-27T04:03:17.508Z,20.50
2018-07-27T04:04:17.512Z,20.48
2018-07-27T04:05:17.505Z,20.57
2018-07-27T04:06:17.506Z,20.53
2018-07-27T04:07:17.504Z,20.48
2018-07-27T04:08:17.496Z,20.48
2018-07-27T04:09:17.500Z,20.51
2018-07-27T04:10:17.499Z,20.50
2018-07-27T04:11:17.492Z,20.51
2018-07-27T04:12:17.490Z,20.48
2018-07-27T04:13:17.485Z,20.37
2018-07-27T04:14:17.489Z,20.38
2018-07-27T04:15:17.483Z,20.41
2018-07-27T04:16:17.479Z,20.41
2018-07-27T04:17:17.477Z,20.48
2018-07-27T04:18:17.475Z,20.48
2018-07-27T04:19:17.473Z,20.50
2018-07-27T04:20:17.472Z,20.54
2018-07-27T04:21:17.467Z,20.63
2018-07-27T04:22:17.508Z,20.61
2018-07-27T04:23:17.469Z,20.64
2018-07-27T04:24:17.460Z,20.68
2018-07-27T04:25:17.458Z,20.73
2018-07-27T04:26:17.464Z,20.63
2018-07-27T04:27:17.461Z,20.69
2018-07-27T04:28:17.457Z,20.66
2018-07-27T04:29:17.455Z,20.66
2018-07-27T04:30:17.448Z,20.63
2018-07-27T04:31:17.448Z,20.73
2018-07-27T04:32:17.444Z,20.63
2018-07-27T04:33:17.442Z,20.61
2018-07-27T04:34:17.442Z,20.63
2018-07-27T04:35:17.446Z,20.78
2018-07-27T04:36:17.436Z,20.87
2018-07-27T04:37:17.436Z,20.94
2018-07-27T04:38:17.430Z,21.53
2018-07-27T04:39:17.430Z,22.39
2018-07-27T04:40:17.424Z,23.07
2018-07-27T04:41:17.422Z,23.59
2018-07-27T04:42:17.427Z,24.18
2018-07-27T04:43:17.421Z,24.75
2018-07-27T04:44:17.421Z,25.08
2018-07-27T04:45:17.418Z,25.53
2018-07-27T04:46:17.422Z,25.74
2018-07-27T04:47:17.424Z,26.06
2018-07-27T04:48:17.417Z,26.27
2018-07-27T04:49:17.422Z,26.42
2018-07-27T04:50:17.419Z,26.71
2018-07-27T04:51:17.425Z,26.97
2018-07-27T04:52:17.419Z,26.97
2018-07-27T04:53:17.428Z,27.28
2018-07-27T04:54:17.425Z,27.53
2018-07-27T04:55:17.427Z,27.66
2018-07-27T04:56:17.460Z,27.84
2018-07-27T04:57:17.432Z,27.98
2018-07-27T04:58:17.440Z,28.14
2018-07-27T04:59:17.443Z,28.28
2018-07-27T05:00:17.443Z,28.30
2018-07-27T05:01:17.451Z,28.43
2018-07-27T05:02:17.447Z,28.30
2018-07-27T05:03:17.453Z,28.27
2018-07-27T05:04:17.457Z,28.51
2018-07-27T05:05:17.464Z,28.54
2018-07-27T05:06:17.466Z,28.62
2018-07-27T05:07:17.474Z,28.76
2018-07-27T05:08:17.474Z,28.91
2018-07-27T05:09:17.482Z,29.03
2018-07-27T05:10:17.486Z,29.08
2018-07-27T05:11:17.495Z,29.21
2018-07-27T05:12:17.497Z,29.20
2018-07-27T05:13:17.502Z,29.25
2018-07-27T05:14:17.510Z,29.30
2018-07-27T05:15:17.513Z,29.21
2018-07-27T05:16:17.520Z,29.14
2018-07-27T05:17:17.523Z,29.30
2018-07-27T05:18:17.642Z,29.36
2018-07-27T05:19:17.540Z,28.95
2018-07-27T05:20:17.539Z,28.72
2018-07-27T05:21:17.549Z,28.80
2018-07-27T05:22:17.553Z,28.40
2018-07-27T05:23:17.555Z,28.08
2018-07-27T05:24:17.559Z,27.83
2018-07-27T05:25:17.566Z,27.69
2018-07-27T05:26:17.567Z,27.58
2018-07-27T05:27:17.570Z,27.38
2018-07-27T05:28:17.574Z,27.12
2018-07-27T05:29:17.577Z,26.97
2018-07-27T05:30:17.582Z,26.27
2018-07-27T05:31:17.585Z,26.03
2018-07-27T05:32:17.593Z,25.71
2018-07-27T05:33:17.591Z,25.39
2018-07-27T05:34:17.630Z,24.92
2018-07-27T05:35:17.600Z,24.77
2018-07-27T05:36:17.595Z,24.60
2018-07-27T05:37:17.604Z,24.39
2018-07-27T05:38:17.599Z,24.09
2018-07-27T05:39:17.607Z,24.12
2018-07-27T05:40:17.604Z,24.23
2018-07-27T05:41:17.605Z,24.34
2018-07-27T05:42:17.606Z,24.42
2018-07-27T05:43:17.608Z,24.60
2018-07-27T05:44:17.612Z,24.75
2018-07-27T05:45:17.613Z,24.84
2018-07-27T05:46:17.609Z,24.93
2018-07-27T05:47:17.613Z,25.04
2018-07-27T05:48:17.612Z,25.07
2018-07-27T05:49:17.618Z,25.17
2018-07-27T05:50:17.620Z,25.24
2018-07-27T05:51:17.617Z,25.27
2018-07-27T05:52:17.615Z,25.24
2018-07-27T05:53:17.619Z,25.29
2018-07-27T05:54:17.619Z,25.38
2018-07-27T05:55:17.623Z,25.46
2018-07-27T05:56:17.620Z,25.38
2018-07-27T05:57:17.624Z,25.51
2018-07-27T05:58:17.631Z,25.59
2018-07-27T05:59:17.627Z,25.48
2018-07-27T06:00:17.631Z,25.38
2018-07-27T06:01:17.690Z,25.23
2018-07-27T06:02:17.632Z,25.26
2018-07-27T06:03:17.629Z,25.19
2018-07-27T06:04:17.630Z,25.24
2018-07-27T06:05:17.631Z,25.19
2018-07-27T06:06:17.632Z,25.17
2018-07-27T06:07:17.631Z,25.35
2018-07-27T06:08:17.632Z,25.35
2018-07-27T06:09:17.633Z,25.44
2018-07-27T06:10:17.635Z,25.61
2018-07-27T06:11:17.704Z,25.69
2018-07-27T06:12:17.640Z,25.71
2018-07-27T06:13:17.639Z,25.69
2018-07-27T06:14:17.637Z,25.57
2018-07-27T06:15:17.644Z,25.31
2018-07-27T06:16:17.645Z,25.30
2018-07-27T06:17:17.641Z,25.08
2018-07-27T06:18:17.648Z,25.02
2018-07-27T06:19:17.642Z,25.08
2018-07-27T06:20:17.644Z,25.16
2018-07-27T06:21:17.647Z,25.30
2018-07-27T06:22:17.646Z,25.39
2018-07-27T06:23:17.647Z,25.48
2018-07-27T06:24:17.755Z,25.56
2018-07-27T06:25:17.648Z,25.72
2018-07-27T06:26:17.650Z,25.72
2018-07-27T06:27:17.652Z,25.91
2018-07-27T06:28:17.688Z,25.83
2018-07-27T06:29:17.715Z,26.03
2018-07-27T06:30:17.654Z,26.08
2018-07-27T06:31:17.661Z,26.13
2018-07-27T06:32:17.656Z,26.24
2018-07-27T06:33:17.661Z,26.36
2018-07-27T06:34:17.659Z,26.51
2018-07-27T06:35:17.659Z,26.50
2018-07-27T06:36:17.659Z,26.49
2018-07-27T06:37:17.662Z,26.54
2018-07-27T06:38:17.664Z,26.60
2018-07-27T06:39:17.670Z,26.65
2018-07-27T06:40:17.670Z,26.71
2018-07-27T06:41:17.672Z,26.72
2018-07-27T06:42:17.671Z,26.75
2018-07-27T06:43:17.672Z,26.73
2018-07-27T06:44:17.671Z,26.86
2018-07-27T06:45:17.704Z,26.93
2018-07-27T06:46:17.679Z,26.91
2018-07-27T06:47:17.676Z,27.09
2018-07-27T06:48:17.684Z,27.08
2018-07-27T06:49:17.679Z,27.05
2018-07-27T06:50:17.681Z,27.12
2018-07-27T06:51:17.682Z,27.24
2018-07-27T06:52:17.709Z,27.20
2018-07-27T06:53:17.689Z,27.20
2018-07-27T06:54:17.687Z,27.23
2018-07-27T06:55:17.690Z,27.28
2018-07-27T06:56:17.689Z,27.34
2018-07-27T06:57:17.694Z,27.30
2018-07-27T06:58:17.702Z,27.43
2018-07-27T06:59:17.699Z,27.42
2018-07-27T07:00:17.699Z,27.59
2018-07-27T07:01:17.706Z,27.61
2018-07-27T07:02:17.703Z,27.69
2018-07-27T07:03:17.704Z,27.74
2018-07-27T07:04:17.706Z,27.66
2018-07-27T07:05:17.711Z,27.77
2018-07-27T07:06:17.710Z,27.84
2018-07-27T07:07:17.715Z,27.86
2018-07-27T07:08:17.714Z,27.99
2018-07-27T07:09:17.719Z,27.93
2018-07-27T07:10:17.720Z,28.03
2018-07-27T07:11:17.728Z,28.02
2018-07-27T07:12:17.726Z,28.05
2018-07-27T07:13:17.728Z,28.03
2018-07-27T07:14:17.734Z,28.08
2018-07-27T07:15:17.732Z,28.13
2018-07-27T07:16:17.737Z,28.11
2018-07-27T07:17:17.736Z,28.11
2018-07-27T07:18:17.738Z,28.14
2018-07-27T07:19:17.747Z,28.17
2018-07-27T07:20:17.750Z,28.24
2018-07-27T07:21:17.747Z,28.23
2018-07-27T07:22:17.754Z,28.39
2018-07-27T07:23:17.751Z,28.38
2018-07-27T07:24:17.754Z,28.39
2018-07-27T07:25:17.874Z,28.45
2018-07-27T07:26:17.760Z,28.40
2018-07-27T07:27:17.764Z,28.51
2018-07-27T07:28:17.768Z,28.54
2018-07-27T07:29:17.767Z,28.55
2018-07-27T07:30:17.773Z,28.55
2018-07-27T07:31:17.777Z,28.62
2018-07-27T07:32:17.773Z,28.64
2018-07-27T07:33:17.847Z,28.67
2018-07-27T07:34:17.779Z,28.76
2018-07-27T07:35:17.783Z,28.74
2018-07-27T07:36:17.785Z,28.74
2018-07-27T07:37:17.791Z,28.69
2018-07-27T07:38:17.791Z,28.77
2018-07-27T07:39:17.797Z,28.97
2018-07-27T07:40:17.797Z,28.79
2018-07-27T07:41:17.807Z,28.89
2018-07-27T07:42:17.803Z,28.69
2018-07-27T07:43:17.809Z,28.73
2018-07-27T07:44:17.813Z,28.50
2018-07-27T07:45:17.816Z,28.42
2018-07-27T07:46:17.821Z,28.43
2018-07-27T07:47:17.823Z,28.48
2018-07-27T07:48:17.826Z,28.52
2018-07-27T07:49:17.898Z,28.62
2018-07-27T07:50:17.831Z,28.77
2018-07-27T07:51:17.837Z,28.74
2018-07-27T07:52:17.837Z,28.79
2018-07-27T07:53:17.837Z,28.95
2018-07-27T07:54:17.839Z,29.05
2018-07-27T07:55:17.843Z,29.07
2018-07-27T07:56:17.852Z,29.15
2018-07-27T07:57:17.848Z,28.79
2018-07-27T07:58:17.853Z,28.91
2018-07-27T07:59:17.858Z,28.97
2018-07-27T08:00:17.862Z,29.12
2018-07-27T08:01:17.866Z,29.23
2018-07-27T08:02:17.865Z,29.25
2018-07-27T08:03:17.867Z,29.18
2018-07-27T08:04:17.925Z,29.08
2018-07-27T08:05:17.879Z,28.58
2018-07-27T08:06:17.878Z,28.55
2018-07-27T08:07:17.880Z,28.67
2018-07-27T08:08:17.882Z,28.72
2018-07-27T08:09:17.886Z,28.83
2018-07-27T08:10:17.897Z,29.03
2018-07-27T08:11:18.010Z,29.11
2018-07-27T08:12:17.895Z,29.30
2018-07-27T08:13:17.902Z,29.36
2018-07-27T08:14:17.903Z,29.37
2018-07-27T08:15:17.908Z,29.55
2018-07-27T08:16:17.910Z,29.63
2018-07-27T08:17:18.002Z,29.64
2018-07-27T08:18:17.918Z,29.74
2018-07-27T08:19:17.923Z,29.86
2018-07-27T08:20:17.928Z,29.89
2018-07-27T08:21:17.928Z,29.99
2018-07-27T08:22:17.935Z,30.16
2018-07-27T08:23:17.935Z,30.16
2018-07-27T08:24:17.942Z,30.28
2018-07-27T08:25:17.947Z,30.32
2018-07-27T08:26:17.946Z,30.37
2018-07-27T08:27:17.950Z,30.42
2018-07-27T08:28:17.952Z,30.44
2018-07-27T08:29:17.957Z,30.60
2018-07-27T08:30:17.967Z,30.59
2018-07-27T08:31:17.966Z,30.59
2018-07-27T08:32:17.968Z,30.60
2018-07-27T08:33:17.974Z,30.61
2018-07-27T08:34:17.977Z,30.60
2018-07-27T08:35:17.987Z,30.61
2018-07-27T08:36:17.983Z,30.61
2018-07-27T08:37:17.987Z,30.61
2018-07-27T08:38:17.994Z,30.60
2018-07-27T08:39:17.998Z,30.59
2018-07-27T08:40:18.001Z,30.68
2018-07-27T08:41:18.007Z,30.59
2018-07-27T08:42:18.011Z,30.63
2018-07-27T08:43:18.015Z,30.54
2018-07-27T08:44:18.021Z,30.54
2018-07-27T08:45:18.021Z,30.60
2018-07-27T08:46:18.032Z,30.63
2018-07-27T08:47:18.061Z,30.60
2018-07-27T08:48:18.038Z,30.61
2018-07-27T08:49:18.039Z,30.75
2018-07-27T08:50:18.058Z,30.82
2018-07-27T08:51:18.050Z,30.86
2018-07-27T08:52:18.058Z,30.94
2018-07-27T08:53:18.060Z,31.04
2018-07-27T08:54:18.067Z,31.01
2018-07-27T08:55:18.066Z,31.19
2018-07-27T08:56:18.136Z,31.12
2018-07-27T08:57:18.078Z,31.20
2018-07-27T08:58:18.082Z,31.22
2018-07-27T08:59:18.084Z,31.23
2018-07-27T09:00:18.087Z,31.16
2018-07-27T09:01:18.092Z,31.34
2018-07-27T09:02:18.098Z,31.27
2018-07-27T09:03:18.101Z,31.30
2018-07-27T09:04:18.107Z,31.30
2018-07-27T09:05:18.115Z,31.30
2018-07-27T09:06:18.115Z,31.32
2018-07-27T09:07:18.121Z,31.28
2018-07-27T09:08:18.124Z,31.35
2018-07-27T09:09:18.129Z,31.34
2018-07-27T09:10:18.150Z,31.31
2018-07-27T09:11:18.138Z,31.38
2018-07-27T09:12:18.143Z,31.46
2018-07-27T09:13:18.148Z,31.54
2018-07-27T09:14:18.158Z,31.49
2018-07-27T09:15:18.165Z,31.52
2018-07-27T09:16:18.167Z,31.40
2018-07-27T09:17:18.228Z,31.38
2018-07-27T09:18:18.223Z,31.35
2018-07-27T09:19:18.177Z,31.19
2018-07-27T09:20:18.181Z,31.18
2018-07-27T09:21:18.187Z,31.10
2018-07-27T09:22:18.191Z,31.00
2018-07-27T09:23:18.197Z,30.94
2018-07-27T09:24:18.229Z,30.60
2018-07-27T09:25:18.531Z,30.49
2018-07-27T09:26:18.212Z,30.51
2018-07-27T09:27:18.215Z,30.32
2018-07-27T09:28:18.219Z,30.51
2018-07-27T09:29:18.227Z,30.57
2018-07-27T09:30:18.227Z,30.70
2018-07-27T09:31:18.235Z,30.72
2018-07-27T09:32:18.239Z,30.81
2018-07-27T09:33:18.244Z,30.75
2018-07-27T09:34:18.302Z,30.79
2018-07-27T09:35:18.381Z,30.82
2018-07-27T09:36:18.256Z,30.79
2018-07-27T09:37:18.260Z,30.85
2018-07-27T09:38:18.265Z,30.85
2018-07-27T09:39:18.271Z,30.94
2018-07-27T09:40:18.288Z,30.96
2018-07-27T09:41:18.280Z,30.94
2018-07-27T09:42:18.282Z,30.94
2018-07-27T09:43:18.292Z,30.91
2018-07-27T09:44:18.292Z,30.94
2018-07-27T09:45:18.304Z,30.94
2018-07-27T09:46:18.302Z,30.94
2018-07-27T09:47:18.306Z,30.94
2018-07-27T09:48:18.317Z,30.93
2018-07-27T09:49:18.315Z,31.07
2018-07-27T09:50:18.326Z,31.01
2018-07-27T09:51:18.328Z,30.91
2018-07-27T09:52:18.327Z,30.97
2018-07-27T09:53:18.333Z,30.96
2018-07-27T09:54:18.355Z,30.91
2018-07-27T09:55:18.346Z,30.94
2018-07-27T09:56:18.345Z,31.07
2018-07-27T09:57:18.353Z,31.05
2018-07-27T09:58:18.360Z,31.07
2018-07-27T09:59:18.363Z,31.01
2018-07-27T10:00:18.366Z,31.05
2018-07-27T10:01:18.369Z,31.10
2018-07-27T10:02:18.378Z,31.19
2018-07-27T10:03:18.383Z,31.22
2018-07-27T10:04:18.383Z,31.31
2018-07-27T10:05:18.391Z,31.16
2018-07-27T10:06:18.397Z,31.13
2018-07-27T10:07:18.396Z,31.15
2018-07-27T10:08:18.401Z,31.15
2018-07-27T10:09:18.407Z,31.12
2018-07-27T10:10:18.410Z,31.10
2018-07-27T10:11:18.416Z,30.94
2018-07-27T10:12:18.420Z,31.01
2018-07-27T10:13:18.424Z,31.01
2018-07-27T10:14:18.432Z,31.00
2018-07-27T10:15:18.434Z,31.00
2018-07-27T10:16:18.438Z,30.97
2018-07-27T10:17:18.440Z,30.94
2018-07-27T10:18:18.447Z,31.00
2018-07-27T10:19:18.456Z,30.94
2018-07-27T10:20:18.454Z,31.01
2018-07-27T10:21:18.459Z,31.10
2018-07-27T10:22:18.462Z,31.23
2018-07-27T10:23:18.474Z,31.38
2018-07-27T10:24:18.473Z,31.41
2018-07-27T10:25:18.480Z,31.34
2018-07-27T10:26:18.487Z,31.34
2018-07-27T10:27:18.487Z,31.50
2018-07-27T10:28:18.495Z,31.52
2018-07-27T10:29:18.498Z,31.53
2018-07-27T10:30:18.500Z,31.42
2018-07-27T10:31:18.573Z,31.35
2018-07-27T10:32:18.519Z,31.35
2018-07-27T10:33:18.514Z,31.30
2018-07-27T10:34:18.524Z,31.32
2018-07-27T10:35:18.530Z,31.30
2018-07-27T10:36:18.529Z,31.37
2018-07-27T10:37:18.535Z,31.31
2018-07-27T10:38:18.544Z,31.52
2018-07-27T10:39:18.544Z,31.34
2018-07-27T10:40:18.549Z,31.31
2018-07-27T10:41:18.559Z,31.35
2018-07-27T10:42:18.560Z,31.45
2018-07-27T10:43:18.562Z,31.40
2018-07-27T10:44:18.571Z,31.38
2018-07-27T10:45:18.576Z,31.35
2018-07-27T10:46:18.583Z,31.42
2018-07-27T10:47:18.589Z,31.42
2018-07-27T10:48:18.587Z,31.35
2018-07-27T10:49:18.591Z,31.35
2018-07-27T10:50:18.638Z,31.34
2018-07-27T10:51:18.605Z,31.20
2018-07-27T10:52:18.605Z,31.30
2018-07-27T10:53:18.612Z,31.35
2018-07-27T10:54:18.617Z,31.50
2018-07-27T10:55:18.622Z,31.45
2018-07-27T10:56:18.648Z,31.46
2018-07-27T10:57:18.635Z,31.47
2018-07-27T10:58:18.635Z,31.32
2018-07-27T10:59:18.645Z,31.35
2018-07-27T11:00:18.644Z,31.35
2018-07-27T11:01:18.651Z,31.42
2018-07-27T11:02:18.702Z,31.53
2018-07-27T11:03:18.664Z,31.47
2018-07-27T11:04:18.670Z,31.64
2018-07-27T11:05:18.667Z,31.67
2018-07-27T11:06:18.674Z,31.68
2018-07-27T11:07:18.677Z,31.72
2018-07-27T11:08:18.688Z,31.56
2018-07-27T11:09:18.687Z,31.67
2018-07-27T11:10:18.691Z,31.75
2018-07-27T11:11:18.697Z,31.84
2018-07-27T11:12:18.699Z,31.92
2018-07-27T11:13:18.706Z,31.95
2018-07-27T11:14:18.710Z,31.71
2018-07-27T11:15:18.767Z,31.76
2018-07-27T11:16:18.766Z,31.69
2018-07-27T11:17:18.771Z,31.85
2018-07-27T11:18:18.738Z,31.87
2018-07-27T11:19:18.736Z,31.84
2018-07-27T11:20:18.738Z,31.92
2018-07-27T11:21:18.763Z,31.84
2018-07-27T11:22:18.750Z,31.69
2018-07-27T11:23:18.754Z,31.87
2018-07-27T11:24:18.766Z,31.87
2018-07-27T11:25:18.763Z,31.79
2018-07-27T11:26:18.772Z,31.72
2018-07-27T11:27:18.778Z,31.69
2018-07-27T11:28:18.779Z,31.79
2018-07-27T11:29:18.787Z,31.84
2018-07-27T11:30:18.788Z,31.92
2018-07-27T11:31:18.797Z,31.87
2018-07-27T11:32:18.795Z,31.91
2018-07-27T11:33:18.801Z,31.85
2018-07-27T11:34:18.814Z,31.98
2018-07-27T11:35:18.813Z,32.12
2018-07-27T11:36:18.821Z,32.13
2018-07-27T11:37:18.852Z,32.19
2018-07-27T11:38:18.828Z,32.19
2018-07-27T11:39:18.830Z,32.21
2018-07-27T11:40:18.837Z,32.12
2018-07-27T11:41:18.850Z,32.10
2018-07-27T11:42:18.935Z,32.13
2018-07-27T11:43:18.855Z,32.03
2018-07-27T11:44:18.861Z,32.03
2018-07-27T11:45:18.860Z,32.21
2018-07-27T11:46:18.867Z,32.10
2018-07-27T11:47:18.870Z,32.27
2018-07-27T11:48:18.877Z,32.19
2018-07-27T11:49:18.917Z,31.98
2018-07-27T11:50:18.888Z,32.12
2018-07-27T11:51:18.892Z,32.19
2018-07-27T11:52:18.898Z,32.10
2018-07-27T11:53:18.902Z,32.19
2018-07-27T11:54:18.913Z,32.16
2018-07-27T11:55:18.918Z,32.21
2018-07-27T11:56:18.921Z,32.24
2018-07-27T11:57:18.921Z,32.41
2018-07-27T11:58:18.926Z,32.46
2018-07-27T11:59:18.936Z,32.72
2018-07-27T12:00:18.953Z,32.78
2018-07-27T12:01:18.942Z,32.87
2018-07-27T12:02:18.949Z,32.98
2018-07-27T12:03:18.958Z,33.00
2018-07-27T12:04:18.955Z,33.24
2018-07-27T12:05:18.964Z,33.05
2018-07-27T12:06:18.974Z,33.00
2018-07-27T12:07:18.974Z,33.02
2018-07-27T12:08:18.977Z,33.00
2018-07-27T12:09:18.988Z,33.02
2018-07-27T12:10:18.993Z,33.02
2018-07-27T12:11:19.001Z,33.09
2018-07-27T12:12:19.002Z,33.15
2018-07-27T12:13:19.011Z,33.15
2018-07-27T12:14:19.183Z,33.20
2018-07-27T12:15:19.253Z,33.17
2018-07-27T12:16:19.030Z,33.15
2018-07-27T12:17:19.029Z,33.24
2018-07-27T12:18:19.038Z,33.22
2018-07-27T12:19:19.040Z,33.14
2018-07-27T12:20:19.054Z,32.93
2018-07-27T12:21:19.150Z,32.90
2018-07-27T12:22:19.064Z,32.93
2018-07-27T12:23:19.071Z,32.80
2018-07-27T12:24:19.069Z,32.85
2018-07-27T12:25:19.082Z,32.80
2018-07-27T12:26:19.081Z,32.88
2018-07-27T12:27:19.089Z,32.93
2018-07-27T12:28:19.094Z,32.96
2018-07-27T12:29:19.105Z,33.06
2018-07-27T12:30:19.110Z,33.11
2018-07-27T12:31:19.115Z,33.07
2018-07-27T12:32:19.115Z,33.03
2018-07-27T12:33:19.224Z,33.07
2018-07-27T12:34:19.128Z,32.99
2018-07-27T12:35:19.138Z,33.05
2018-07-27T12:36:19.144Z,32.98
2018-07-27T12:37:19.209Z,32.98
2018-07-27T12:38:19.150Z,33.02
2018-07-27T12:39:19.157Z,33.05
2018-07-27T12:40:19.162Z,33.21
2018-07-27T12:41:19.173Z,33.15
2018-07-27T12:42:19.173Z,33.26
2018-07-27T12:43:19.181Z,33.24
2018-07-27T12:44:19.188Z,33.21
2018-07-27T12:45:19.194Z,33.15
2018-07-27T12:46:19.204Z,33.24
2018-07-27T12:47:19.202Z,33.22
2018-07-27T12:48:19.218Z,33.24
2018-07-27T12:49:19.214Z,33.02
2018-07-27T12:50:19.228Z,33.09
2018-07-27T12:51:19.316Z,33.11
2018-07-27T12:52:19.231Z,32.99